Ana Sayfa
METAR-TAF:

METAR-TAF

Havaalanları :

Zafer Havalimanı

Kütahya, Türkiye

Enlem: 39-06-41N, Boylam: 30-07-48E, yükseklik: 1013 m

Güncel hava durumu gözlemi

Rapor saat 01:50 UTC de 37 dakika önce yapıldı.
Rüzgar güneydoğudan 19 kt
Sıcaklık 6°C
Nem 75%
Basınç 1004 hPa
Görüş mesafesi 10 km veya daha fazla
4000 ft yükseklikte parçalı çok bulutlu

METAR: LTBZ 240150Z 14019KT 9999 BKN040 06/02 Q1004

Saat: 05:27 (02:27 UTC)

Tahmin

Rapor saat 22:40 UTC de 3 saat ve 47 dakika önce yapıldı.
Ayın 24'si saat 00 UTC'den ayın 24'si saat 09 UTC'ye kadar geçerli Tahmin
Rüzgar güneydoğudan 7 kt
Görüş mesafesi 10 km veya daha fazla
3500 ft yükseklikte parçalı bulutlu
10000 ft yükseklikte parçalı çok bulutlu
Geçici
ayın 24'si saat 00 UTC'den ayın 24'si saat 04 UTC'ye kadar
hafif yağmur

TAF: LTBZ 232240Z 2400/2409 14007KT 9999 SCT035 BKN100 TEMPO 2400/2404 -RA

4.000'den fazla havaalanı için hava durumu gözlemleri ve tahminleri (METAR ve TAF raporları).

Kullanılabilir istasyonlar harita üzerinde sarı ve kırmızı noktalarla gösterilir.

İstasyonun adını görmek için fareyi noktanın üzerinde gezdirin.

Sonrasında hava gözlem ve tahminlerini görmek için tıklayın.

Haritayı değiştirmek için: yaklaştırmak için siyah artı işaretli yeşil düğmeye ve uzaklaştırmak için de eksi işaretli düğmeye hızla tıklayın; bitişik haritalar için yeşil okları kullanın.


METAR-TAF: